createdAt,value
2018-05-07T00:00:50.030Z,1001.9
2018-05-07T00:01:50.696Z,1001.9
2018-05-07T00:02:51.362Z,1001.9
2018-05-07T00:03:52.063Z,1001.9
2018-05-07T00:04:52.693Z,1001.9
2018-05-07T00:05:53.378Z,1001.9
2018-05-07T00:06:54.024Z,1001.9
2018-05-07T00:07:54.691Z,1001.8
2018-05-07T00:08:55.394Z,1001.9
2018-05-07T00:09:56.063Z,1001.9
2018-05-07T00:10:56.730Z,1001.8
2018-05-07T00:11:57.412Z,1001.8
2018-05-07T00:12:58.080Z,1001.8
2018-05-07T00:13:58.728Z,1001.8
2018-05-07T00:14:59.394Z,1001.8
2018-05-07T00:16:00.073Z,1001.8
2018-05-07T00:17:00.726Z,1001.8
2018-05-07T00:18:01.393Z,1001.8
2018-05-07T00:19:02.059Z,1001.8
2018-05-07T00:20:02.725Z,1001.8
2018-05-07T00:21:03.391Z,1001.8
2018-05-07T00:22:04.057Z,1001.7
2018-05-07T00:23:04.722Z,1001.7
2018-05-07T00:24:05.388Z,1001.8
2018-05-07T00:25:06.056Z,1001.7
2018-05-07T00:26:06.718Z,1001.7
2018-05-07T00:27:07.385Z,1001.7
2018-05-07T00:28:08.052Z,1001.7
2018-05-07T00:29:08.720Z,1001.7
2018-05-07T00:30:09.386Z,1001.7
2018-05-07T00:31:10.052Z,1001.7
2018-05-07T00:32:10.729Z,1001.7
2018-05-07T00:33:11.415Z,1001.7
2018-05-07T00:34:12.050Z,1001.7
2018-05-07T00:35:12.716Z,1001.7
2018-05-07T00:36:13.382Z,1001.7
2018-05-07T00:37:14.049Z,1001.7
2018-05-07T00:38:14.714Z,1001.7
2018-05-07T00:39:15.380Z,1001.7
2018-05-07T00:40:16.045Z,1001.7
2018-05-07T00:41:16.709Z,1001.7
2018-05-07T00:42:17.374Z,1001.7
2018-05-07T00:43:18.039Z,1001.8
2018-05-07T00:44:18.705Z,1001.7
2018-05-07T00:45:19.376Z,1001.7
2018-05-07T00:46:20.077Z,1001.7
2018-05-07T00:47:20.744Z,1001.7
2018-05-07T00:48:21.412Z,1001.8
2018-05-07T00:49:22.078Z,1001.8
2018-05-07T00:50:22.745Z,1001.7
2018-05-07T00:51:23.412Z,1001.7
2018-05-07T00:52:24.078Z,1001.8
2018-05-07T00:53:24.744Z,1001.8
2018-05-07T00:54:25.409Z,1001.8
2018-05-07T00:55:26.079Z,1001.8
2018-05-07T00:56:26.741Z,1001.7
2018-05-07T00:57:27.405Z,1001.7
2018-05-07T00:58:28.070Z,1001.7
2018-05-07T00:59:28.758Z,1001.7
2018-05-07T01:00:29.408Z,1001.7
2018-05-07T01:01:30.103Z,1001.8
2018-05-07T01:02:30.767Z,1001.8
2018-05-07T01:03:31.433Z,1001.8
2018-05-07T01:04:32.098Z,1001.8
2018-05-07T01:05:32.763Z,1001.8
2018-05-07T01:06:33.488Z,1001.9
2018-05-07T01:07:34.094Z,1001.9
2018-05-07T01:08:34.761Z,1001.9
2018-05-07T01:09:35.428Z,1001.9
2018-05-07T01:10:36.098Z,1001.9
2018-05-07T01:11:36.762Z,1001.9
2018-05-07T01:12:37.427Z,1001.9
2018-05-07T01:13:38.143Z,1001.9
2018-05-07T01:14:38.809Z,1001.9
2018-05-07T01:15:39.475Z,1001.9
2018-05-07T01:16:40.141Z,1002.0
2018-05-07T01:17:40.806Z,1002.0
2018-05-07T01:18:41.472Z,1002.0
2018-05-07T01:19:42.136Z,1002.0
2018-05-07T01:20:42.802Z,1002.0
2018-05-07T01:21:43.470Z,1002.1
2018-05-07T01:22:44.137Z,1002.0
2018-05-07T01:23:44.840Z,1002.0
2018-05-07T01:24:45.507Z,1002.1
2018-05-07T01:25:46.175Z,1002.1
2018-05-07T01:26:46.841Z,1002.1
2018-05-07T01:27:47.508Z,1002.1
2018-05-07T01:28:48.207Z,1002.1
2018-05-07T01:29:48.871Z,1002.1
2018-05-07T01:30:49.536Z,1002.1
2018-05-07T01:31:50.201Z,1002.1
2018-05-07T01:32:50.869Z,1002.0
2018-05-07T01:33:51.535Z,1002.1
2018-05-07T01:34:52.241Z,1002.1
2018-05-07T01:35:52.942Z,1002.1
2018-05-07T01:36:53.606Z,1002.1
2018-05-07T01:37:54.272Z,1002.1
2018-05-07T01:38:54.938Z,1002.1
2018-05-07T01:39:55.607Z,1002.1
2018-05-07T01:40:56.269Z,1002.1
2018-05-07T01:41:56.935Z,1002.1
2018-05-07T01:42:57.637Z,1002.1
2018-05-07T01:43:58.302Z,1002.0
2018-05-07T01:44:58.967Z,1002.1
2018-05-07T01:45:59.636Z,1002.0
2018-05-07T01:47:00.337Z,1002.1
2018-05-07T01:48:01.036Z,1002.1
2018-05-07T01:49:01.702Z,1002.0
2018-05-07T01:50:02.367Z,1002.1
2018-05-07T01:51:03.033Z,1002.0
2018-05-07T01:52:03.697Z,1002.0
2018-05-07T01:53:04.362Z,1002.0
2018-05-07T01:54:05.029Z,1002.0
2018-05-07T01:55:05.694Z,1002.0
2018-05-07T01:56:06.361Z,1002.0
2018-05-07T01:57:07.027Z,1002.0
2018-05-07T01:58:07.694Z,1002.0
2018-05-07T01:59:08.358Z,1002.0
2018-05-07T02:00:09.062Z,1002.0
2018-05-07T02:01:09.728Z,1002.0
2018-05-07T02:02:10.393Z,1002.0
2018-05-07T02:03:11.059Z,1002.0
2018-05-07T02:04:11.725Z,1002.0
2018-05-07T02:05:12.392Z,1002.0
2018-05-07T02:06:13.062Z,1002.0
2018-05-07T02:07:13.723Z,1002.0
2018-05-07T02:08:14.388Z,1002.0
2018-05-07T02:09:15.053Z,1002.0
2018-05-07T02:10:15.717Z,1002.0
2018-05-07T02:11:16.382Z,1002.1
2018-05-07T02:12:17.047Z,1002.1
2018-05-07T02:13:17.779Z,1002.1
2018-05-07T02:14:18.377Z,1002.0
2018-05-07T02:15:19.045Z,1002.0
2018-05-07T02:16:19.716Z,1002.1
2018-05-07T02:17:20.416Z,1002.0
2018-05-07T02:18:21.082Z,1002.0
2018-05-07T02:19:21.747Z,1002.0
2018-05-07T02:20:22.412Z,1002.0
2018-05-07T02:21:23.078Z,1001.9
2018-05-07T02:22:23.744Z,1001.9
2018-05-07T02:23:24.409Z,1001.9
2018-05-07T02:24:25.076Z,1001.9
2018-05-07T02:25:25.742Z,1001.9
2018-05-07T02:26:26.408Z,1001.9
2018-05-07T02:27:27.072Z,1001.9
2018-05-07T02:28:27.737Z,1001.9
2018-05-07T02:29:28.400Z,1001.9
2018-05-07T02:30:29.066Z,1001.9
2018-05-07T02:31:29.759Z,1001.9
2018-05-07T02:32:30.396Z,1001.8
2018-05-07T02:33:31.065Z,1001.8
2018-05-07T02:34:31.729Z,1001.8
2018-05-07T02:35:32.395Z,1001.8
2018-05-07T02:36:33.060Z,1001.8
2018-05-07T02:37:33.724Z,1001.8
2018-05-07T02:38:34.390Z,1001.8
2018-05-07T02:39:35.054Z,1001.8
2018-05-07T02:40:35.720Z,1001.8
2018-05-07T02:41:36.389Z,1001.7
2018-05-07T02:42:37.052Z,1001.7
2018-05-07T02:43:37.718Z,1001.7
2018-05-07T02:44:38.384Z,1001.8
2018-05-07T02:45:39.047Z,1001.7
2018-05-07T02:46:39.711Z,1001.7
2018-05-07T02:47:40.377Z,1001.6
2018-05-07T02:48:41.077Z,1001.7
2018-05-07T02:49:41.791Z,1001.7
2018-05-07T02:50:42.457Z,1001.7
2018-05-07T02:51:43.124Z,1001.7
2018-05-07T02:52:43.791Z,1001.7
2018-05-07T02:53:44.456Z,1001.7
2018-05-07T02:54:45.173Z,1001.7
2018-05-07T02:55:45.837Z,1001.7
2018-05-07T02:56:46.502Z,1001.7
2018-05-07T02:57:47.167Z,1001.8
2018-05-07T02:58:47.832Z,1001.7
2018-05-07T02:59:48.497Z,1001.7
2018-05-07T03:00:49.161Z,1001.7
2018-05-07T03:01:49.827Z,1001.7
2018-05-07T03:02:50.490Z,1001.7
2018-05-07T03:03:51.155Z,1001.7
2018-05-07T03:04:51.859Z,1001.7
2018-05-07T03:05:52.524Z,1001.7
2018-05-07T03:06:53.191Z,1001.7
2018-05-07T03:07:53.861Z,1001.7
2018-05-07T03:08:54.522Z,1001.7
2018-05-07T03:09:55.241Z,1001.7
2018-05-07T03:10:55.938Z,1001.6
2018-05-07T03:11:56.602Z,1001.7
2018-05-07T03:12:57.269Z,1001.7
2018-05-07T03:13:57.935Z,1001.6
2018-05-07T03:14:58.601Z,1001.6
2018-05-07T03:15:59.266Z,1001.6
2018-05-07T03:16:59.968Z,1001.6
2018-05-07T03:18:00.634Z,1001.6
2018-05-07T03:19:01.300Z,1001.6
2018-05-07T03:20:01.966Z,1001.6
2018-05-07T03:21:02.634Z,1001.6
2018-05-07T03:22:03.335Z,1001.6
2018-05-07T03:23:04.004Z,1001.6
2018-05-07T03:24:04.669Z,1001.6
2018-05-07T03:25:05.336Z,1001.6
2018-05-07T03:26:06.003Z,1001.6
2018-05-07T03:27:06.667Z,1001.6
2018-05-07T03:28:07.334Z,1001.6
2018-05-07T03:29:08.000Z,1001.6
2018-05-07T03:30:08.665Z,1001.6
2018-05-07T03:31:09.334Z,1001.6
2018-05-07T03:32:10.033Z,1001.5
2018-05-07T03:33:10.698Z,1001.5
2018-05-07T03:34:11.364Z,1001.6
2018-05-07T03:35:12.030Z,1001.6
2018-05-07T03:36:12.696Z,1001.5
2018-05-07T03:37:13.363Z,1001.5
2018-05-07T03:38:14.027Z,1001.5
2018-05-07T03:39:14.698Z,1001.5
2018-05-07T03:40:15.399Z,1001.5
2018-05-07T03:41:16.103Z,1001.5
2018-05-07T03:42:16.773Z,1001.5
2018-05-07T03:43:17.474Z,1001.5
2018-05-07T03:44:18.102Z,1001.4
2018-05-07T03:45:18.768Z,1001.5
2018-05-07T03:46:19.434Z,1001.4
2018-05-07T03:47:20.103Z,1001.4
2018-05-07T03:48:20.768Z,1001.4
2018-05-07T03:49:21.435Z,1001.4
2018-05-07T03:50:22.100Z,1001.4
2018-05-07T03:51:22.765Z,1001.4
2018-05-07T03:52:23.432Z,1001.4
2018-05-07T03:53:24.101Z,1001.4
2018-05-07T03:54:24.770Z,1001.4
2018-05-07T03:55:25.434Z,1001.3
2018-05-07T03:56:26.106Z,1001.3
2018-05-07T03:57:26.808Z,1001.4
2018-05-07T03:58:27.475Z,1001.3
2018-05-07T03:59:28.142Z,1001.3
2018-05-07T04:00:28.809Z,1001.3
2018-05-07T04:01:29.474Z,1001.3
2018-05-07T04:02:30.141Z,1001.3
2018-05-07T04:03:30.810Z,1001.3
2018-05-07T04:04:31.477Z,1001.3
2018-05-07T04:05:32.143Z,1001.3
2018-05-07T04:06:32.848Z,1001.3
2018-05-07T04:07:33.515Z,1001.4
2018-05-07T04:08:34.182Z,1001.3
2018-05-07T04:09:34.850Z,1001.3
2018-05-07T04:10:35.517Z,1001.4
2018-05-07T04:11:36.186Z,1001.3
2018-05-07T04:12:36.849Z,1001.4
2018-05-07T04:13:37.520Z,1001.4
2018-05-07T04:14:38.187Z,1001.4
2018-05-07T04:15:38.853Z,1001.4
2018-05-07T04:16:39.521Z,1001.4
2018-05-07T04:17:40.188Z,1001.4
2018-05-07T04:18:40.855Z,1001.4
2018-05-07T04:19:41.522Z,1001.4
2018-05-07T04:20:42.190Z,1001.4
2018-05-07T04:21:42.856Z,1001.4
2018-05-07T04:22:43.526Z,1001.4
2018-05-07T04:23:44.192Z,1001.4
2018-05-07T04:24:44.860Z,1001.4
2018-05-07T04:25:45.528Z,1001.4
2018-05-07T04:26:46.197Z,1001.4
2018-05-07T04:27:46.865Z,1001.4
2018-05-07T04:28:47.533Z,1001.4
2018-05-07T04:29:48.202Z,1001.5
2018-05-07T04:30:48.873Z,1001.5
2018-05-07T04:31:49.539Z,1001.5
2018-05-07T04:32:50.209Z,1001.5
2018-05-07T04:33:50.887Z,1001.5
2018-05-07T04:34:51.552Z,1001.5
2018-05-07T04:35:52.214Z,1001.5
2018-05-07T04:36:52.883Z,1001.5
2018-05-07T04:37:53.551Z,1001.5
2018-05-07T04:38:54.219Z,1001.5
2018-05-07T04:39:54.889Z,1001.5
2018-05-07T04:40:55.594Z,1001.5
2018-05-07T04:41:56.263Z,1001.6
2018-05-07T04:42:56.930Z,1001.6
2018-05-07T04:43:57.598Z,1001.6
2018-05-07T04:44:58.268Z,1001.6
2018-05-07T04:45:58.937Z,1001.6
2018-05-07T04:46:59.606Z,1001.6
2018-05-07T04:48:00.275Z,1001.6
2018-05-07T04:49:00.943Z,1001.6
2018-05-07T04:50:01.612Z,1001.6
2018-05-07T04:51:02.278Z,1001.6
2018-05-07T04:52:02.948Z,1001.6
2018-05-07T04:53:03.617Z,1001.5
2018-05-07T04:54:04.286Z,1001.6
2018-05-07T04:55:05.022Z,1001.6
2018-05-07T04:56:05.625Z,1001.6
2018-05-07T04:57:06.296Z,1001.6
2018-05-07T04:58:06.961Z,1001.6
2018-05-07T04:59:07.672Z,1001.6
2018-05-07T05:00:08.342Z,1001.6
2018-05-07T05:01:09.011Z,1001.6
2018-05-07T05:02:09.682Z,1001.6
2018-05-07T05:03:10.352Z,1001.6
2018-05-07T05:04:11.057Z,1001.7
2018-05-07T05:05:11.724Z,1001.7
2018-05-07T05:06:12.397Z,1001.7
2018-05-07T05:07:13.082Z,1001.7
2018-05-07T05:08:13.765Z,1001.7
2018-05-07T05:09:14.441Z,1001.7
2018-05-07T05:10:15.139Z,1001.7
2018-05-07T05:11:15.810Z,1001.7
2018-05-07T05:12:16.478Z,1001.7
2018-05-07T05:13:17.146Z,1001.7
2018-05-07T05:14:17.818Z,1001.6
2018-05-07T05:15:18.486Z,1001.7
2018-05-07T05:16:19.157Z,1001.6
2018-05-07T05:17:19.825Z,1001.6
2018-05-07T05:18:20.498Z,1001.6
2018-05-07T05:19:21.179Z,1001.6
2018-05-07T05:20:21.864Z,1001.6
2018-05-07T05:21:22.541Z,1001.6
2018-05-07T05:22:23.202Z,1001.6
2018-05-07T05:23:23.875Z,1001.6
2018-05-07T05:24:24.588Z,1001.6
2018-05-07T05:25:25.254Z,1001.6
2018-05-07T05:26:25.925Z,1001.6
2018-05-07T05:27:26.677Z,1001.5
2018-05-07T05:28:27.262Z,1001.6
2018-05-07T05:29:27.931Z,1001.6
2018-05-07T05:30:28.601Z,1001.6
2018-05-07T05:31:29.272Z,1001.6
2018-05-07T05:32:29.977Z,1001.6
2018-05-07T05:33:30.648Z,1001.6
2018-05-07T05:34:31.317Z,1001.5
2018-05-07T05:35:31.990Z,1001.5
2018-05-07T05:36:32.708Z,1001.5
2018-05-07T05:37:33.376Z,1001.6
2018-05-07T05:38:34.083Z,1001.6
2018-05-07T05:39:34.753Z,1001.5
2018-05-07T05:40:35.422Z,1001.5
2018-05-07T05:41:36.091Z,1001.5
2018-05-07T05:42:36.762Z,1001.5
2018-05-07T05:43:37.538Z,1001.5
2018-05-07T05:44:38.141Z,1001.5
2018-05-07T05:45:38.809Z,1001.5
2018-05-07T05:46:39.480Z,1001.5
2018-05-07T05:47:40.149Z,1001.5
2018-05-07T05:48:40.821Z,1001.5
2018-05-07T05:49:41.489Z,1001.5
2018-05-07T05:50:42.160Z,1001.5
2018-05-07T05:51:42.830Z,1001.5
2018-05-07T05:52:43.501Z,1001.5
2018-05-07T05:53:44.170Z,1001.5
2018-05-07T05:54:44.839Z,1001.5
2018-05-07T05:55:45.509Z,1001.5
2018-05-07T05:56:46.231Z,1001.5
2018-05-07T05:57:46.900Z,1001.5
2018-05-07T05:58:47.572Z,1001.5
2018-05-07T05:59:48.241Z,1001.5
2018-05-07T06:00:48.912Z,1001.5
2018-05-07T06:01:49.584Z,1001.5
2018-05-07T06:02:50.252Z,1001.5
2018-05-07T06:03:50.963Z,1001.5
2018-05-07T06:04:51.593Z,1001.5
2018-05-07T06:05:52.262Z,1001.5
2018-05-07T06:06:52.935Z,1001.5
2018-05-07T06:07:53.605Z,1001.5
2018-05-07T06:08:54.321Z,1001.5
2018-05-07T06:09:54.975Z,1001.5
2018-05-07T06:10:55.646Z,1001.5
2018-05-07T06:11:56.317Z,1001.5
2018-05-07T06:12:56.989Z,1001.4
2018-05-07T06:13:57.659Z,1001.4
2018-05-07T06:14:58.555Z,1001.4
2018-05-07T06:15:59.001Z,1001.4
2018-05-07T06:16:59.672Z,1001.4
2018-05-07T06:18:00.343Z,1001.4
2018-05-07T06:19:01.064Z,1001.4
2018-05-07T06:20:01.686Z,1001.4
2018-05-07T06:21:02.363Z,1001.4
2018-05-07T06:22:03.032Z,1001.5
2018-05-07T06:23:03.705Z,1001.4
2018-05-07T06:24:04.377Z,1001.4
2018-05-07T06:25:05.086Z,1001.4
2018-05-07T06:26:05.758Z,1001.4
2018-05-07T06:27:06.485Z,1001.5
2018-05-07T06:28:07.160Z,1001.5
2018-05-07T06:29:07.844Z,1001.5
2018-05-07T06:30:08.507Z,1001.5
2018-05-07T06:31:09.185Z,1001.5
2018-05-07T06:32:09.862Z,1001.5
2018-05-07T06:33:10.531Z,1001.5
2018-05-07T06:34:11.209Z,1001.5
2018-05-07T06:35:11.886Z,1001.5
2018-05-07T06:36:12.560Z,1001.5
2018-05-07T06:37:13.239Z,1001.5
2018-05-07T06:38:13.921Z,1001.5
2018-05-07T06:39:14.630Z,1001.5
2018-05-07T06:40:15.310Z,1001.5
2018-05-07T06:41:15.989Z,1001.5
2018-05-07T06:42:16.669Z,1001.5
2018-05-07T06:43:17.348Z,1001.5
2018-05-07T06:44:18.029Z,1001.5
2018-05-07T06:45:18.709Z,1001.5
2018-05-07T06:46:19.388Z,1001.5
2018-05-07T06:47:20.070Z,1001.5
2018-05-07T06:48:20.751Z,1001.5
2018-05-07T06:49:21.433Z,1001.5
2018-05-07T06:50:22.115Z,1001.5
2018-05-07T06:51:22.796Z,1001.5
2018-05-07T06:52:23.515Z,1001.5
2018-05-07T06:53:24.196Z,1001.5
2018-05-07T06:54:24.918Z,1001.5
2018-05-07T06:55:25.602Z,1001.5
2018-05-07T06:56:26.283Z,1001.5
2018-05-07T06:57:26.966Z,1001.5
2018-05-07T06:58:27.649Z,1001.5
2018-05-07T06:59:28.367Z,1001.5
2018-05-07T07:00:29.052Z,1001.5
2018-05-07T07:01:29.739Z,1001.5
2018-05-07T07:02:30.496Z,1001.4
2018-05-07T07:03:31.141Z,1001.4
2018-05-07T07:04:31.823Z,1001.4
2018-05-07T07:05:32.512Z,1001.4
2018-05-07T07:06:33.231Z,1001.4
2018-05-07T07:07:33.915Z,1001.4
2018-05-07T07:08:34.796Z,1001.4
2018-05-07T07:09:35.283Z,1001.5
2018-05-07T07:10:35.966Z,1001.4
2018-05-07T07:11:36.653Z,1001.4
2018-05-07T07:12:37.340Z,1001.4
2018-05-07T07:13:38.026Z,1001.4
2018-05-07T07:14:38.711Z,1001.4
2018-05-07T07:15:39.398Z,1001.4
2018-05-07T07:16:40.084Z,1001.4
2018-05-07T07:17:40.770Z,1001.4
2018-05-07T07:18:41.454Z,1001.4
2018-05-07T07:19:42.142Z,1001.5
2018-05-07T07:20:42.830Z,1001.4
2018-05-07T07:21:43.617Z,1001.5
2018-05-07T07:22:44.235Z,1001.4
2018-05-07T07:23:44.920Z,1001.5
2018-05-07T07:24:45.606Z,1001.4
2018-05-07T07:25:46.292Z,1001.5
2018-05-07T07:26:46.979Z,1001.5
2018-05-07T07:27:47.706Z,1001.5
2018-05-07T07:28:48.394Z,1001.5
2018-05-07T07:29:49.077Z,1001.5
2018-05-07T07:30:49.804Z,1001.5
2018-05-07T07:31:50.489Z,1001.5
2018-05-07T07:32:51.172Z,1001.5
2018-05-07T07:33:51.933Z,1001.5
2018-05-07T07:34:52.546Z,1001.5
2018-05-07T07:35:53.231Z,1001.4
2018-05-07T07:36:53.916Z,1001.5
2018-05-07T07:37:54.602Z,1001.4
2018-05-07T07:38:55.289Z,1001.4
2018-05-07T07:39:55.973Z,1001.4
2018-05-07T07:40:56.659Z,1001.3
2018-05-07T07:41:57.343Z,1001.3
2018-05-07T07:42:58.030Z,1001.3
2018-05-07T07:43:58.719Z,1001.3
2018-05-07T07:44:59.403Z,1001.3
2018-05-07T07:46:00.088Z,1001.3
2018-05-07T07:47:00.847Z,1001.3
2018-05-07T07:48:01.459Z,1001.3
2018-05-07T07:49:02.143Z,1001.3
2018-05-07T07:50:02.828Z,1001.3
2018-05-07T07:51:03.516Z,1001.3
2018-05-07T07:52:04.235Z,1001.3
2018-05-07T07:53:04.928Z,1001.3
2018-05-07T07:54:05.643Z,1001.3
2018-05-07T07:55:06.327Z,1001.3
2018-05-07T07:56:07.011Z,1001.3
2018-05-07T07:57:07.694Z,1001.3
2018-05-07T07:58:08.376Z,1001.2
2018-05-07T07:59:09.061Z,1001.3
2018-05-07T08:00:09.747Z,1001.2
2018-05-07T08:01:10.465Z,1001.2
2018-05-07T08:02:11.154Z,1001.3
2018-05-07T08:03:11.835Z,1001.2
2018-05-07T08:04:12.581Z,1001.2
2018-05-07T08:05:13.278Z,1001.2
2018-05-07T08:06:13.960Z,1001.2
2018-05-07T08:07:14.647Z,1001.2
2018-05-07T08:08:15.331Z,1001.2
2018-05-07T08:09:16.016Z,1001.2
2018-05-07T08:10:16.698Z,1001.2
2018-05-07T08:11:17.382Z,1001.2
2018-05-07T08:12:18.201Z,1001.2
2018-05-07T08:13:18.801Z,1001.2
2018-05-07T08:14:19.484Z,1001.2
2018-05-07T08:15:20.167Z,1001.2
2018-05-07T08:16:20.853Z,1001.2
2018-05-07T08:17:21.538Z,1001.2
2018-05-07T08:18:22.222Z,1001.2
2018-05-07T08:19:22.906Z,1001.2
2018-05-07T08:20:23.588Z,1001.2
2018-05-07T08:21:24.272Z,1001.2
2018-05-07T08:22:24.958Z,1001.2
2018-05-07T08:23:25.642Z,1001.2
2018-05-07T08:24:26.379Z,1001.1
2018-05-07T08:25:27.026Z,1001.1
2018-05-07T08:26:27.709Z,1001.1
2018-05-07T08:27:28.397Z,1001.1
2018-05-07T08:28:29.077Z,1001.1
2018-05-07T08:29:29.760Z,1001.1
2018-05-07T08:30:30.464Z,1001.1
2018-05-07T08:31:31.129Z,1001.1
2018-05-07T08:32:31.813Z,1001.1
2018-05-07T08:33:32.497Z,1001.0
2018-05-07T08:34:33.182Z,1001.0
2018-05-07T08:35:33.869Z,1001.1
2018-05-07T08:36:34.630Z,1001.1
2018-05-07T08:37:35.236Z,1001.0
2018-05-07T08:38:35.923Z,1001.0
2018-05-07T08:39:36.603Z,1001.0
2018-05-07T08:40:37.291Z,1001.0
2018-05-07T08:41:37.975Z,1001.0
2018-05-07T08:42:38.655Z,1000.9
2018-05-07T08:43:39.339Z,1001.0
2018-05-07T08:44:40.022Z,1001.0
2018-05-07T08:45:40.706Z,1001.0
2018-05-07T08:46:41.399Z,1000.9
2018-05-07T08:47:42.074Z,1000.9
2018-05-07T08:48:42.760Z,1000.9
2018-05-07T08:49:43.441Z,1000.9
2018-05-07T08:50:44.198Z,1001.0
2018-05-07T08:51:44.811Z,1001.0
2018-05-07T08:52:45.538Z,1000.9
2018-05-07T08:53:46.188Z,1001.0
2018-05-07T08:54:46.903Z,1001.0
2018-05-07T08:55:47.588Z,1000.9
2018-05-07T08:56:48.271Z,1001.0
2018-05-07T08:57:48.957Z,1000.9
2018-05-07T08:58:49.641Z,1000.9
2018-05-07T08:59:50.324Z,1000.9
2018-05-07T09:00:51.008Z,1000.9
2018-05-07T09:01:51.691Z,1000.9
2018-05-07T09:02:52.378Z,1000.9
2018-05-07T09:03:53.062Z,1000.9
2018-05-07T09:04:53.748Z,1000.9
2018-05-07T09:05:54.472Z,1000.9
2018-05-07T09:06:55.150Z,1000.9
2018-05-07T09:07:55.869Z,1000.9
2018-05-07T09:08:56.523Z,1000.9
2018-05-07T09:09:57.206Z,1000.8
2018-05-07T09:10:57.891Z,1000.9
2018-05-07T09:11:58.577Z,1000.9
2018-05-07T09:12:59.295Z,1000.9
2018-05-07T09:13:59.981Z,1000.8
2018-05-07T09:15:00.687Z,1000.8
2018-05-07T09:16:01.347Z,1000.9
2018-05-07T09:17:02.031Z,1000.8
2018-05-07T09:18:02.714Z,1000.8
2018-05-07T09:19:03.399Z,1000.8
2018-05-07T09:20:04.082Z,1000.8
2018-05-07T09:21:04.767Z,1000.8
2018-05-07T09:22:05.450Z,1000.8
2018-05-07T09:23:06.133Z,1000.8
2018-05-07T09:24:06.819Z,1000.8
2018-05-07T09:25:07.501Z,1000.7
2018-05-07T09:26:08.186Z,1000.7
2018-05-07T09:27:08.877Z,1000.8
2018-05-07T09:28:09.551Z,1000.8
2018-05-07T09:29:10.234Z,1000.7
2018-05-07T09:30:10.918Z,1000.7
2018-05-07T09:31:11.601Z,1000.7
2018-05-07T09:32:12.286Z,1000.7
2018-05-07T09:33:12.967Z,1000.7
2018-05-07T09:34:13.651Z,1000.7
2018-05-07T09:35:14.371Z,1000.7
2018-05-07T09:36:15.056Z,1000.7
2018-05-07T09:37:15.739Z,1000.7
2018-05-07T09:38:16.423Z,1000.7
2018-05-07T09:39:17.107Z,1000.7
2018-05-07T09:40:17.789Z,1000.7
2018-05-07T09:41:18.480Z,1000.6
2018-05-07T09:42:19.197Z,1000.6
2018-05-07T09:43:19.902Z,1000.6
2018-05-07T09:44:20.563Z,1000.6
2018-05-07T09:45:21.245Z,1000.6
2018-05-07T09:46:21.930Z,1000.5
2018-05-07T09:47:22.613Z,1000.5
2018-05-07T09:48:23.333Z,1000.5
2018-05-07T09:49:23.981Z,1000.5
2018-05-07T09:50:24.666Z,1000.5
2018-05-07T09:51:25.348Z,1000.4
2018-05-07T09:52:26.071Z,1000.4
2018-05-07T09:53:26.752Z,1000.5
2018-05-07T09:54:27.438Z,1000.5
2018-05-07T09:55:28.117Z,1000.5
2018-05-07T09:56:28.799Z,1000.5
2018-05-07T09:57:29.483Z,1000.5
2018-05-07T09:58:30.168Z,1000.4
2018-05-07T09:59:30.851Z,1000.5
2018-05-07T10:00:31.540Z,1000.4
2018-05-07T10:01:32.215Z,1000.4
2018-05-07T10:02:33.000Z,1000.5
2018-05-07T10:03:33.582Z,1000.4
2018-05-07T10:04:34.302Z,1000.4
2018-05-07T10:05:35.024Z,1000.4
2018-05-07T10:06:35.706Z,1000.4
2018-05-07T10:07:36.387Z,1000.4
2018-05-07T10:08:37.070Z,1000.3
2018-05-07T10:09:37.754Z,1000.4
2018-05-07T10:10:38.437Z,1000.4
2018-05-07T10:11:39.119Z,1000.4
2018-05-07T10:12:39.807Z,1000.4
2018-05-07T10:13:40.482Z,1000.4
2018-05-07T10:14:41.166Z,1000.3
2018-05-07T10:15:41.848Z,1000.3
2018-05-07T10:16:42.531Z,1000.3
2018-05-07T10:17:43.222Z,1000.3
2018-05-07T10:18:43.896Z,1000.3
2018-05-07T10:19:44.579Z,1000.2
2018-05-07T10:20:45.260Z,1000.2
2018-05-07T10:21:45.945Z,1000.2
2018-05-07T10:22:46.626Z,1000.2
2018-05-07T10:23:47.306Z,1000.2
2018-05-07T10:24:47.990Z,1000.1
2018-05-07T10:25:48.672Z,1000.1
2018-05-07T10:26:49.354Z,1000.2
2018-05-07T10:27:50.035Z,1000.1
2018-05-07T10:28:50.716Z,1000.1
2018-05-07T10:29:51.476Z,1000.1
2018-05-07T10:30:52.079Z,1000.1
2018-05-07T10:31:52.759Z,1000.1
2018-05-07T10:32:53.444Z,1000.1
2018-05-07T10:33:54.120Z,1000.1
2018-05-07T10:34:54.801Z,1000.1
2018-05-07T10:35:55.483Z,1000.1
2018-05-07T10:36:56.201Z,1000.2
2018-05-07T10:37:56.880Z,1000.1
2018-05-07T10:38:57.561Z,1000.1
2018-05-07T10:39:58.245Z,1000.1
2018-05-07T10:40:58.928Z,1000.1
2018-05-07T10:41:59.606Z,1000.1
2018-05-07T10:43:00.285Z,1000.0
2018-05-07T10:44:00.965Z,1000.0
2018-05-07T10:45:01.686Z,1000.0
2018-05-07T10:46:02.365Z,1000.0
2018-05-07T10:47:03.041Z,1000.0
2018-05-07T10:48:03.721Z,1000.0
2018-05-07T10:49:04.471Z,1000.0
2018-05-07T10:50:05.081Z,1000.0
2018-05-07T10:51:05.762Z,999.9
2018-05-07T10:52:06.437Z,999.9
2018-05-07T10:53:07.116Z,999.9
2018-05-07T10:54:07.795Z,999.8
2018-05-07T10:55:08.472Z,999.9
2018-05-07T10:56:09.210Z,999.9
2018-05-07T10:57:09.830Z,999.9
2018-05-07T10:58:10.507Z,999.9
2018-05-07T10:59:11.185Z,999.8
2018-05-07T11:00:11.866Z,999.8
2018-05-07T11:01:12.543Z,999.8
2018-05-07T11:02:13.222Z,999.7
2018-05-07T11:03:13.901Z,999.7
2018-05-07T11:04:14.580Z,999.7
2018-05-07T11:05:15.258Z,999.7
2018-05-07T11:06:15.974Z,999.6
2018-05-07T11:07:16.653Z,999.6
2018-05-07T11:08:17.331Z,999.7
2018-05-07T11:09:18.010Z,999.6
2018-05-07T11:10:18.687Z,999.6
2018-05-07T11:11:19.364Z,999.6
2018-05-07T11:12:20.044Z,999.6
2018-05-07T11:13:20.722Z,999.5
2018-05-07T11:14:21.400Z,999.5
2018-05-07T11:15:22.078Z,999.5
2018-05-07T11:16:22.757Z,999.5
2018-05-07T11:17:23.434Z,999.5
2018-05-07T11:18:24.114Z,999.4
2018-05-07T11:19:24.801Z,999.4
2018-05-07T11:20:25.470Z,999.5
2018-05-07T11:21:26.151Z,999.4
2018-05-07T11:22:26.825Z,999.4
2018-05-07T11:23:27.501Z,999.4
2018-05-07T11:24:28.180Z,999.3
2018-05-07T11:25:28.896Z,999.3
2018-05-07T11:26:29.576Z,999.3
2018-05-07T11:27:30.252Z,999.4
2018-05-07T11:28:30.929Z,999.4
2018-05-07T11:29:31.607Z,999.4
2018-05-07T11:30:32.282Z,999.4
2018-05-07T11:31:32.962Z,999.4
2018-05-07T11:32:33.639Z,999.3
2018-05-07T11:33:34.316Z,999.3
2018-05-07T11:34:34.996Z,999.3
2018-05-07T11:35:35.672Z,999.3
2018-05-07T11:36:36.350Z,999.3
2018-05-07T11:37:37.029Z,999.3
2018-05-07T11:38:37.709Z,999.3
2018-05-07T11:39:38.385Z,999.3
2018-05-07T11:40:39.063Z,999.3
2018-05-07T11:41:39.740Z,999.3
2018-05-07T11:42:40.416Z,999.3
2018-05-07T11:43:41.097Z,999.3
2018-05-07T11:44:41.774Z,999.3
2018-05-07T11:45:42.489Z,999.3
2018-05-07T11:46:43.167Z,999.2
2018-05-07T11:47:43.862Z,999.2
2018-05-07T11:48:44.522Z,999.2
2018-05-07T11:49:45.199Z,999.2
2018-05-07T11:50:45.878Z,999.2
2018-05-07T11:51:46.557Z,999.2
2018-05-07T11:52:47.237Z,999.2
2018-05-07T11:53:47.952Z,999.2
2018-05-07T11:54:48.628Z,999.2
2018-05-07T11:55:49.307Z,999.2
2018-05-07T11:56:50.019Z,999.1
2018-05-07T11:57:50.696Z,999.2
2018-05-07T11:58:51.376Z,999.2
2018-05-07T11:59:52.053Z,999.2
2018-05-07T12:00:52.729Z,999.1
2018-05-07T12:01:53.407Z,999.1
2018-05-07T12:02:54.121Z,999.1
2018-05-07T12:03:54.799Z,999.1
2018-05-07T12:04:55.478Z,999.1
2018-05-07T12:05:56.155Z,999.1
2018-05-07T12:06:56.880Z,999.1
2018-05-07T12:07:57.509Z,999.1
2018-05-07T12:08:58.192Z,999.0
2018-05-07T12:09:58.863Z,999.0
2018-05-07T12:10:59.540Z,999.1
2018-05-07T12:12:00.220Z,999.2
2018-05-07T12:13:00.900Z,999.1
2018-05-07T12:14:01.612Z,999.0
2018-05-07T12:15:02.290Z,999.0
2018-05-07T12:16:03.004Z,999.0
2018-05-07T12:17:03.644Z,999.0
2018-05-07T12:18:04.322Z,999.0
2018-05-07T12:19:05.001Z,998.9
2018-05-07T12:20:05.676Z,999.0
2018-05-07T12:21:06.354Z,998.9
2018-05-07T12:22:07.036Z,999.0
2018-05-07T12:23:07.728Z,999.0
2018-05-07T12:24:08.396Z,999.0
2018-05-07T12:25:09.069Z,999.0
2018-05-07T12:26:09.783Z,998.9
2018-05-07T12:27:10.458Z,998.9
2018-05-07T12:28:11.136Z,998.9
2018-05-07T12:29:11.813Z,998.9
2018-05-07T12:30:12.490Z,998.9
2018-05-07T12:31:13.261Z,998.9
2018-05-07T12:32:13.877Z,998.9
2018-05-07T12:33:14.556Z,998.9
2018-05-07T12:34:15.233Z,998.9
2018-05-07T12:35:15.910Z,998.9
2018-05-07T12:36:16.591Z,998.8
2018-05-07T12:37:17.264Z,998.9
2018-05-07T12:38:17.941Z,998.8
2018-05-07T12:39:18.619Z,998.8
2018-05-07T12:40:19.336Z,998.8